AirNav   Air Wisconsin Up To $57,000 Bonus
 
 1249 users online  

44FD Hard Rock Heliport
Hollywood, Florida, USA

GOING TO HOLLYWOOD?


FAA INFORMATION EFFECTIVE 07 NOVEMBER 2019

Location

FAA Identifier: 44FD
Lat/Long: 26-03-02.6900N 080-12-39.2000W
26-03.044833N 080-12.653333W
26.0507472,-80.2108889
(estimated)
Elevation: 125 ft. / 38 m (estimated)
From city: 5 miles NW of HOLLYWOOD, FL
Time zone: UTC -5 (UTC -4 during Daylight Saving Time)
Zip code: 33314

Heliport Operations

Heliport use: Private use. Permission required prior to landing
Activation date: 12/2015
Control tower: no
ARTCC: MIAMI CENTER
FSS: MIAMI FLIGHT SERVICE STATION
Attendance: IREG
Wind indicator: yes
Segmented circle: yes

Heliport Communications

WX ASOS at HWO (3 nm SW): PHONE 954-983-5904
WX ASOS at FLL (4 nm E): PHONE 954-359-7857
WX ASOS at FXE (9 nm N): PHONE 954-772-2537
WX ASOS at OPF (9 nm SW): 125.9 (305-681-4063)
WX ASOS at PMP (13 nm NE): PHONE 954-783-3720
WX ASOS at MIA (16 nm S): PHONE 305-870-0235

Nearby radio navigation aids

VOR radial/distance  VOR name  Freq  Var
FLLr246/2.8FORT LAUDERDALE VOR/DME114.4006W
DHPr030/16.8DOLPHIN VORTAC113.9004W
VKZr354/18.2VIRGINIA KEY VOR/DME117.1004W
PBIr193/38.3PALM BEACH VORTAC115.7003W

Heliport Services

Runway Information

Helipad H1

Dimensions: 50 x 50 ft. / 15 x 15 m
Surface: ROOF/TOP
Weight bearing capacity: 
Single wheel: 12.5
Traffic pattern: leftleft

Heliport Ownership and Management from official FAA records

Ownership: Privately-owned
Owner: SEMINOLE TRIBE OF FLORIDA
1 SEMINOLE WAY
HOLLYWOOD, FL 33024
Phone 863-983-7677
Manager: PEDRO RODRIQUEZ
35201 EAGLES LANDING
CLEWISTON, FL 33440
Phone 863-983-7677

Additional Remarks

HELI IS LCTD ON THE TOP FLOOR OF A PARKING GARAGE.
FOR CD CTC MIAMI APCH AT 305-869-5432.

Instrument Procedures

There are no published instrument procedures at 44FD.

Some nearby airports with instrument procedures:

KHWO - North Perry Airport (3 nm SW)
KFLL - Fort Lauderdale/Hollywood International Airport (4 nm E)
KFXE - Fort Lauderdale Executive Airport (9 nm N)
KOPF - Miami-Opa Locka Executive Airport (9 nm SW)
KPMP - Pompano Beach Airpark (13 nm NE)
KMIA - Miami International Airport (16 nm S)
 
Loc | Ops | Rwys | IFR | FBO | Links
Com | Nav | Svcs | Stats | Notes
Aerial photo
No photo
 
Airport distance calculator
Flying to Hard Rock Heliport? Find the distance to fly.

From to 44FD

Sunrise and sunset
Times for 15-Nov-2019
 Local
(UTC-5)
 Zulu
(UTC)
Morning civil twilight06:1611:16
Sunrise06:4011:40
Sunset17:3122:31
Evening civil twilight17:5522:55

Current date and time
Zulu (UTC)  15-Nov-2019 20:26:28
Local (UTC-5)  15-Nov-2019 15:26:28
 
METAR
KHWO 
3nm S 
151953Z 26008KT 10SM SCT028 SCT035 28/22 A2990 RMK AO2 SLP124 T02830217
KFLL 
3nm E 
151953Z 26010KT 10SM FEW028 SCT050 BKN150 BKN250 27/23 A2988 RMK AO2 RAB11E27 SLP116 P0006 T02720228
KOPF 
9nm SW 
151953Z 23009KT 10SM SCT031 SCT060 28/22 A2990 RMK AO2 SLP124 T02780217
KFXE 
9nm N 
152000Z 30012G21KT 10SM FEW023 SCT031 BKN038 25/21 A2989 RMK AO2 LTG DSNT SW T02500211
KPMP 
13nm NE 
151953Z 25010KT 10SM FEW025 SCT075 BKN150 28/21 A2988 RMK AO2 SLP119 T02780211
KMIA 
17nm S 
151953Z 25008KT 10SM FEW030 SCT050 BKN080 BKN130 OVC250 28/20 A2990 RMK AO2 SLP124 CB DSNT N AND SW-NW T02830200 $
TAF
KFLL 
3nm E 
151745Z 1518/1624 21009KT P6SM VCSH SCT020 BKN090 BKN250 FM151900 25009KT P6SM VCTS SCT020CB BKN050 BKN100 TEMPO 1519/1522 VRB15G25KT 3SM TSRA BKN020CB BKN040 OVC100 FM160000 26007KT P6SM VCSH SCT030 BKN050 BKN120 FM161000 29008KT P6SM FEW030 SCT050 SCT120 FM161700 33011KT P6SM FEW050 SCT250
KOPF 
9nm SW 
151745Z 1518/1618 23009KT P6SM VCSH SCT020 BKN090 BKN250 FM151900 25008KT P6SM VCTS SCT020CB BKN050 BKN100 TEMPO 1519/1522 VRB15G25KT 3SM TSRA BKN020CB BKN040 OVC100 FM160000 27007KT P6SM VCSH SCT030 BKN050 BKN120 FM161000 31010KT P6SM FEW030 SCT050 SCT120
KFXE 
9nm N 
151745Z 1518/1618 21008KT P6SM VCSH SCT020 BKN090 BKN250 FM151900 25010KT P6SM VCTS SCT020CB BKN050 BKN100 TEMPO 1519/1522 VRB15G25KT 3SM TSRA BKN020CB BKN040 OVC100 FM160000 26008KT P6SM VCSH SCT030 BKN050 BKN120 FM161000 30009KT P6SM FEW030 SCT050 SCT120
KMIA 
17nm S 
151745Z 1518/1624 21008KT P6SM VCSH SCT020 BKN090 BKN250 FM151900 23008KT P6SM VCTS SCT020CB BKN050 BKN100 TEMPO 1519/1522 VRB15G25KT 3SM TSRA BKN020CB BKN040 OVC100 FM160000 25006KT P6SM VCSH SCT030 BKN050 BKN120 FM161000 29008KT P6SM FEW030 SCT050 SCT120 FM161700 32011KT P6SM FEW050 SCT250
NOTAMs
Click for the latest NOTAMs
NOTAMs are issued by the DoD/FAA and will open in a separate window not controlled by AirNav.

 

 
 

Would you like to see your business listed on this page?

 If your business provides an interesting product or service to pilots, flight crews, aircraft, or users of the Hard Rock Heliport, you should consider listing it here.  To start the listing process, click on the button below
 
Add a business
 

Other Pages about Hard Rock Heliport

Update a link
 
Copyright © AirNav, LLC. All rights reserved. Privacy Policy  Contact